This is the latest recevied weather packets stored in our database for station/object SM0PQB-13. If no packets are shown the sender has not sent any weather packets the latest 10 day(s).
| Time | Temp. | Humidity | Pressure | Rain* | Wind** | Luminosity | Snow |
|---|---|---|---|---|---|---|---|
| 1777909752 | 23.89° C | 37% | 1000 hPa | - | - | - | - |
| 1777909152 | 24.44° C | 37% | 999.9 hPa | - | - | - | - |
| 1777908553 | 24.44° C | 37% | 999.9 hPa | - | - | - | - |
| 1777907952 | 24.44° C | 36% | 999.8 hPa | - | - | - | - |
| 1777907352 | 25° C | 35% | 999.7 hPa | - | - | - | - |
| 1777906753 | 26.11° C | 33% | 999.7 hPa | - | - | - | - |
| 1777906153 | 26.11° C | 33% | 999.6 hPa | - | - | - | - |
| 1777905552 | 25.56° C | 34% | 999.1 hPa | - | - | - | - |
| 1777904954 | 26.11° C | 32% | 999.5 hPa | - | - | - | - |
| 1777904352 | 26.67° C | 31% | 999.6 hPa | - | - | - | - |
| 1777903752 | 26.11° C | 33% | 999.6 hPa | - | - | - | - |
| 1777903152 | 26.67° C | 31% | 999.6 hPa | - | - | - | - |
| 1777902551 | 26.67° C | 31% | 999.6 hPa | - | - | - | - |
| 1777901953 | 26.67° C | 31% | 999.6 hPa | - | - | - | - |
| 1777901352 | 26.67° C | 32% | 999.7 hPa | - | - | - | - |
| 1777900753 | 26.11° C | 32% | 999.7 hPa | - | - | - | - |
| 1777900153 | 26.67° C | 31% | 999.8 hPa | - | - | - | - |
| 1777899552 | 26.67° C | 31% | 999.8 hPa | - | - | - | - |
| 1777898953 | 27.78° C | 29% | 999.9 hPa | - | - | - | - |
| 1777898352 | 27.22° C | 30% | 1000 hPa | - | - | - | - |
| 1777897752 | 31.67° C | 24% | 1000 hPa | - | - | - | - |
| 1777897152 | 29.44° C | 27% | 1000.1 hPa | - | - | - | - |
| 1777896554 | 28.33° C | 29% | 1000.3 hPa | - | - | - | - |
| 1777895952 | 27.22° C | 30% | 1000.4 hPa | - | - | - | - |
| 1777895352 | 26.67° C | 31% | 1000.4 hPa | - | - | - | - |
* Rain since midnight (hover to see other rain measurements)
** Current wind speed in m/s (hover to see current wind gust speed)